CPX408 Details

Departure: Tulsa International Airport (KTUL)
Arrival: Chicago/Rockford International Airport (KRFD) at N/A
Route: TUL5 EOS J181 BAYLI J105 BDF
Notes:


Current Weather Information
KTUL 171653Z 08011KT 10SM FEW035 SCT110 BKN250 31/23 A2989 RMK AO2 SLP111 T03060228
KRFD 171654Z 10007KT 10SM FEW040 BKN150 BKN250 24/19 A2991 RMK AO2 SLP124 T02390194